Time;durP1;ratioP1;P1;durP2;ratioP2;P2;SDS_P1;SDS_P2;PMS_P1;PMS_P2;Temp;Humidity;BMP_temperature;BMP_pressure;BME280_temperature;BME280_humidity;BME280_pressure;Samples;Min_cycle;Max_cycle;Signal;HPM_P1;HPM_P2
2022/08/07 04:00:35;;;;;;;1.05;0.75;;;13.80;88.70;;;;;;5897927;23;21191;-73
2022/08/07 04:03:01;;;;;;;1.27;0.70;;;13.90;89.40;;;;;;4975839;28;20186;-73
2022/08/07 04:05:26;;;;;;;1.70;0.80;;;13.80;89.80;;;;;;4976788;28;20035;-73
2022/08/07 04:07:52;;;;;;;0.88;0.60;;;13.70;90.00;;;;;;4975684;28;20523;-73
2022/08/07 04:10:19;;;;;;;2.35;0.60;;;13.70;90.00;;;;;;4977330;28;20031;-73
2022/08/07 04:12:45;;;;;;;2.92;0.80;;;13.70;90.10;;;;;;4979017;28;20036;-72
2022/08/07 04:15:11;;;;;;;1.15;0.73;;;13.70;90.00;;;;;;4976574;28;20078;-72
2022/08/07 04:17:37;;;;;;;0.85;0.60;;;13.90;89.90;;;;;;4975506;28;20062;-72
2022/08/07 04:20:07;;;;;;;2.00;0.65;;;13.90;89.90;;;;;;4975599;28;20042;-72
2022/08/07 04:22:33;;;;;;;2.35;0.80;;;13.90;90.00;;;;;;4976895;28;20086;-72
2022/08/07 04:24:59;;;;;;;3.42;0.70;;;14.00;90.00;;;;;;4976852;28;20095;-72
2022/08/07 04:27:25;;;;;;;1.00;0.60;;;14.00;89.40;;;;;;4976849;28;20031;-72
2022/08/07 04:29:50;;;;;;;1.55;0.65;;;14.00;88.80;;;;;;4976933;28;20043;-72
2022/08/07 04:32:16;;;;;;;0.95;0.68;;;14.00;89.90;;;;;;4976765;28;20485;-72
2022/08/07 04:34:42;;;;;;;2.58;0.73;;;14.00;90.00;;;;;;4976679;28;20410;-72
2022/08/07 04:37:08;;;;;;;1.23;0.73;;;14.00;89.40;;;;;;4977020;28;20042;-72
2022/08/07 04:39:34;;;;;;;0.93;0.68;;;14.00;90.10;;;;;;4976692;28;20063;-72
2022/08/07 04:42:01;;;;;;;2.10;0.75;;;14.00;90.10;;;;;;4976644;28;20031;-72
2022/08/07 04:44:27;;;;;;;1.52;0.77;;;13.90;90.20;;;;;;4976733;28;20102;-72
2022/08/07 04:47:08;;;;;;;1.08;0.70;;;13.90;90.20;;;;;;4976734;28;20095;-72
2022/08/07 04:49:51;;;;;;;1.30;0.70;;;13.90;90.50;;;;;;4976336;28;20054;-72
2022/08/07 04:52:55;;;;;;;2.88;0.73;;;13.90;90.50;;;;;;4976517;28;20410;-72
2022/08/07 04:55:40;;;;;;;1.42;0.70;;;14.00;90.80;;;;;;4974534;28;20055;-72
2022/08/07 04:58:20;;;;;;;1.55;0.70;;;14.00;90.80;;;;;;4976562;28;20031;-72
2022/08/07 05:00:52;;;;;;;1.23;0.63;;;13.90;91.10;;;;;;4975918;28;20042;-72
2022/08/07 05:03:28;;;;;;;1.48;0.77;;;13.90;91.30;;;;;;4974904;28;20163;-72
2022/08/07 05:06:08;;;;;;;1.13;0.70;;;13.90;91.50;;;;;;4976202;28;20050;-72
2022/08/07 05:09:13;;;;;;;1.65;0.77;;;14.00;90.90;;;;;;4976241;28;20035;-72
2022/08/07 05:11:45;;;;;;;1.50;0.63;;;14.10;91.30;;;;;;4962842;28;20043;-72
2022/08/07 05:14:16;;;;;;;2.60;0.80;;;14.10;90.90;;;;;;4974277;28;20279;-72
2022/08/07 05:16:46;;;;;;;1.85;0.75;;;14.20;91.20;;;;;;4976065;28;20067;-73
2022/08/07 05:19:15;;;;;;;2.60;0.90;;;14.20;91.20;;;;;;4975769;28;20481;-72
2022/08/07 05:21:48;;;;;;;0.90;0.70;;;14.30;90.70;;;;;;4975850;28;20090;-72
2022/08/07 05:24:16;;;;;;;2.00;0.70;;;14.40;90.40;;;;;;4975757;28;20043;-72
2022/08/07 05:26:43;;;;;;;1.70;0.80;;;14.50;90.20;;;;;;4974355;28;20035;-72
2022/08/07 05:29:12;;;;;;;2.47;0.80;;;14.70;89.80;;;;;;4975823;28;20505;-72
2022/08/07 05:31:40;;;;;;;3.38;1.00;;;14.80;89.40;;;;;;4975312;28;20043;-72
2022/08/07 05:34:09;;;;;;;1.80;0.95;;;14.90;89.00;;;;;;4975049;28;20039;-72
2022/08/07 05:36:37;;;;;;;1.35;0.73;;;15.10;88.80;;;;;;4975599;28;20548;-72
2022/08/07 05:39:04;;;;;;;0.82;0.82;;;15.20;88.40;;;;;;4975469;28;20047;-72
2022/08/07 05:41:30;;;;;;;0.90;0.60;;;15.20;88.20;;;;;;4974053;28;20035;-72
2022/08/07 05:43:57;;;;;;;4.43;0.70;;;15.40;87.70;;;;;;4974721;28;20082;-72
2022/08/07 05:46:23;;;;;;;2.97;0.90;;;15.50;87.30;;;;;;4975593;28;20035;-72
2022/08/07 05:48:50;;;;;;;2.80;0.85;;;15.60;87.10;;;;;;4975287;28;20413;-72
2022/08/07 05:51:17;;;;;;;0.75;0.70;;;15.60;87.10;;;;;;4975389;28;20034;-73
2022/08/07 05:53:43;;;;;;;1.70;0.75;;;15.70;86.90;;;;;;4975544;28;20039;-72
2022/08/07 05:56:11;;;;;;;2.15;0.90;;;15.70;86.60;;;;;;4975415;28;20094;-72
2022/08/07 05:58:37;;;;;;;2.15;0.90;;;15.80;87.30;;;;;;4973923;28;20046;-72
2022/08/07 06:01:06;;;;;;;1.05;0.90;;;15.80;86.40;;;;;;4974668;28;20042;-72
2022/08/07 06:03:32;;;;;;;1.92;0.95;;;15.90;86.70;;;;;;4975191;28;20039;-72
2022/08/07 06:05:58;;;;;;;1.50;0.98;;;15.90;86.90;;;;;;4975056;28;20098;-72
2022/08/07 06:08:25;;;;;;;1.77;0.80;;;16.00;87.40;;;;;;4975344;28;20110;-72
2022/08/07 06:10:51;;;;;;;1.67;0.90;;;16.10;87.10;;;;;;4975220;28;20027;-72
2022/08/07 06:13:17;;;;;;;1.83;1.10;;;16.10;87.10;;;;;;4975349;28;20493;-72
2022/08/07 06:15:44;;;;;;;1.80;0.90;;;16.10;86.00;;;;;;4974963;28;20039;-72
2022/08/07 06:18:12;;;;;;;2.17;0.90;;;16.20;86.00;;;;;;4975560;28;20035;-72
2022/08/07 06:20:38;;;;;;;3.10;0.85;;;16.30;86.40;;;;;;4975344;28;20055;-72
2022/08/07 06:23:05;;;;;;;1.40;0.98;;;16.30;86.10;;;;;;4974079;28;20493;-72
2022/08/07 06:25:32;;;;;;;2.25;0.90;;;16.50;86.10;;;;;;4975517;28;20124;-72
2022/08/07 06:28:06;;;;;;;1.70;0.80;;;16.50;85.50;;;;;;4974101;28;20035;-72
2022/08/07 06:30:33;;;;;;;1.15;0.90;;;16.60;85.70;;;;;;4974891;28;20035;-72
2022/08/07 06:32:59;;;;;;;3.22;1.10;;;16.60;85.50;;;;;;4974992;28;20122;-72
2022/08/07 06:35:24;;;;;;;2.28;1.10;;;16.70;85.40;;;;;;4974722;28;20504;-73
2022/08/07 06:37:50;;;;;;;4.00;1.02;;;16.80;85.70;;;;;;4974642;28;20031;-73
2022/08/07 06:40:16;;;;;;;2.35;1.00;;;16.90;84.90;;;;;;4974890;28;20569;-76
2022/08/07 06:42:45;;;;;;;4.22;1.00;;;17.00;84.90;;;;;;4974837;28;20114;-73
2022/08/07 06:45:13;;;;;;;2.83;1.05;;;17.00;85.00;;;;;;4974643;28;20126;-73
2022/08/07 06:47:40;;;;;;;1.25;1.02;;;17.10;85.40;;;;;;4974926;28;20091;-73
2022/08/07 06:50:06;;;;;;;0.80;0.80;;;17.20;85.10;;;;;;4974744;28;20046;-73
2022/08/07 06:52:36;;;;;;;2.45;1.10;;;17.30;85.40;;;;;;4974831;28;20028;-76
2022/08/07 06:55:10;;;;;;;2.33;1.02;;;17.40;85.00;;;;;;4975619;28;20105;-72
2022/08/07 06:57:37;;;;;;;1.88;0.88;;;17.60;84.90;;;;;;4978030;28;20035;-75
2022/08/07 07:00:04;;;;;;;2.83;1.10;;;17.70;84.10;;;;;;4976713;28;20114;-72
2022/08/07 07:02:31;;;;;;;1.35;0.98;;;17.90;83.90;;;;;;4977919;28;20062;-72
2022/08/07 07:04:56;;;;;;;1.75;0.95;;;18.00;83.20;;;;;;4977571;28;20098;-72
2022/08/07 07:07:22;;;;;;;1.35;1.00;;;18.20;83.20;;;;;;4978178;28;20427;-71
2022/08/07 07:09:49;;;;;;;1.00;0.80;;;18.30;82.60;;;;;;4977968;28;20041;-70
2022/08/07 07:12:42;;;;;;;1.20;1.10;;;18.40;83.80;;;;;;4977730;28;20042;-70
2022/08/07 07:15:16;;;;;;;2.75;0.90;;;18.60;82.70;;;;;;4976043;28;20047;-70
2022/08/07 07:17:45;;;;;;;1.92;1.00;;;18.80;81.40;;;;;;4976256;28;20035;-71
2022/08/07 07:20:20;;;;;;;1.15;0.98;;;19.00;81.20;;;;;;4977730;28;20031;-70
2022/08/07 07:22:47;;;;;;;2.40;0.95;;;19.00;81.50;;;;;;4977777;28;20032;-69
2022/08/07 07:25:15;;;;;;;1.52;1.00;;;19.30;79.90;;;;;;4977523;28;20039;-76
2022/08/07 07:27:51;;;;;;;5.13;0.98;;;19.50;80.00;;;;;;4977723;28;20036;-70
2022/08/07 07:30:21;;;;;;;3.15;1.27;;;19.80;80.50;;;;;;4975820;28;20039;-70
2022/08/07 07:32:47;;;;;;;1.33;1.23;;;20.00;79.80;;;;;;4977675;28;20066;-79
2022/08/07 07:35:14;;;;;;;3.08;1.00;;;20.20;78.30;;;;;;4975685;28;20075;-75
2022/08/07 07:37:43;;;;;;;1.30;1.00;;;20.50;78.50;;;;;;4977666;28;20062;-72
2022/08/07 07:40:15;;;;;;;4.20;1.10;;;20.60;78.40;;;;;;4977257;28;20049;-73
2022/08/07 07:42:42;;;;;;;1.52;1.00;;;20.80;77.40;;;;;;4977931;28;20023;-77
2022/08/07 07:45:10;;;;;;;1.92;0.98;;;21.20;75.80;;;;;;4977425;28;20039;-76
2022/08/07 07:47:41;;;;;;;1.67;1.42;;;21.40;74.70;;;;;;4976573;28;20570;-76
2022/08/07 07:50:10;;;;;;;1.73;1.20;;;21.60;75.20;;;;;;4974762;28;20090;-71
2022/08/07 07:52:37;;;;;;;1.83;1.20;;;21.80;73.90;;;;;;4975869;28;20083;-70
2022/08/07 07:55:04;;;;;;;1.77;0.90;;;22.10;72.70;;;;;;4975335;28;20539;-71
2022/08/07 07:57:32;;;;;;;1.80;1.10;;;22.20;72.30;;;;;;4977065;28;20035;-71
2022/08/07 07:59:59;;;;;;;1.55;1.10;;;22.30;71.00;;;;;;4976936;28;20071;-71
2022/08/07 08:02:27;;;;;;;1.85;1.00;;;22.60;70.20;;;;;;4975535;28;20039;-71
2022/08/07 08:04:54;;;;;;;2.67;1.13;;;22.70;71.40;;;;;;4976747;28;20873;-74
2022/08/07 08:07:20;;;;;;;2.67;1.10;;;23.00;70.00;;;;;;4976470;28;20031;-71
2022/08/07 08:09:49;;;;;;;1.08;0.90;;;22.80;68.80;;;;;;4977142;28;20493;-71
2022/08/07 08:12:16;;;;;;;4.47;1.30;;;23.10;70.20;;;;;;4976908;28;20062;-71
2022/08/07 08:14:41;;;;;;;4.32;1.08;;;23.30;68.30;;;;;;4976389;28;20043;-70
2022/08/07 08:17:11;;;;;;;1.23;1.10;;;23.50;67.60;;;;;;4975408;28;20067;-73
2022/08/07 08:19:38;;;;;;;2.47;1.10;;;23.80;67.10;;;;;;4976715;28;20106;-71
2022/08/07 08:27:53;;;;;;;1.33;1.10;;;24.20;63.60;;;;;;4985792;28;20567;-70
2022/08/07 08:30:20;;;;;;;2.25;1.17;;;24.20;63.60;;;;;;4976462;28;20118;-72
2022/08/07 08:32:53;;;;;;;3.33;0.80;;;24.00;63.30;;;;;;4976605;28;20023;-72
2022/08/07 08:35:24;;;;;;;2.22;1.05;;;24.10;64.40;;;;;;4976443;28;20046;-72
2022/08/07 08:37:56;;;;;;;1.80;0.90;;;24.40;63.30;;;;;;4976373;28;20036;-72
2022/08/07 08:40:50;;;;;;;2.05;0.85;;;24.70;62.00;;;;;;4976391;28;20122;-72
2022/08/07 08:43:30;;;;;;;2.83;0.90;;;24.90;60.30;;;;;;4976320;28;20039;-72
2022/08/07 08:46:20;;;;;;;2.42;0.80;;;25.00;59.90;;;;;;4976040;28;20031;-73
2022/08/07 08:49:16;;;;;;;1.35;0.80;;;25.30;58.60;;;;;;4976451;28;20035;-76
2022/08/07 08:51:56;;;;;;;4.43;0.90;;;25.30;57.80;;;;;;4976378;28;20035;-72
2022/08/07 08:54:37;;;;;;;2.95;1.42;;;25.50;57.40;;;;;;4976184;28;20564;-72
2022/08/07 08:57:09;;;;;;;2.22;0.90;;;25.60;57.00;;;;;;4976331;28;20067;-72
2022/08/07 08:59:52;;;;;;;1.25;0.80;;;25.80;55.80;;;;;;4976304;28;20031;-72
2022/08/07 09:02:48;;;;;;;1.08;0.90;;;25.70;56.20;;;;;;4975471;28;20032;-72
2022/08/07 09:05:34;;;;;;;1.40;0.80;;;25.80;57.50;;;;;;4975608;28;20101;-72
2022/08/07 09:08:19;;;;;;;1.52;0.70;;;25.90;55.50;;;;;;4976542;28;20035;-72
2022/08/07 09:10:54;;;;;;;0.88;0.80;;;25.90;53.80;;;;;;4975788;28;20035;-72
2022/08/07 09:13:57;;;;;;;1.90;0.80;;;26.10;53.60;;;;;;4975989;28;20086;-72
2022/08/07 09:16:29;;;;;;;2.10;0.70;;;26.10;52.90;;;;;;4975907;28;20042;-72
2022/08/07 09:19:08;;;;;;;1.20;0.77;;;26.10;54.40;;;;;;4975099;28;20039;-72
2022/08/07 09:21:42;;;;;;;2.67;0.93;;;26.40;53.10;;;;;;4975983;28;20039;-72
2022/08/07 09:24:13;;;;;;;1.70;0.82;;;26.30;53.40;;;;;;4975884;28;20027;-72
2022/08/07 09:26:52;;;;;;;1.08;0.88;;;26.60;52.70;;;;;;4975896;28;20039;-72
2022/08/07 09:29:37;;;;;;;2.78;0.70;;;26.80;52.60;;;;;;4975817;28;20039;-72
2022/08/07 09:32:09;;;;;;;1.58;0.80;;;27.00;51.40;;;;;;4975194;28;20501;-72
2022/08/07 09:34:48;;;;;;;1.00;0.80;;;27.00;50.10;;;;;;4973938;28;20047;-72
2022/08/07 09:37:27;;;;;;;1.20;0.93;;;26.90;50.10;;;;;;4974048;28;20155;-72
2022/08/07 09:40:07;;;;;;;2.03;0.73;;;27.20;50.30;;;;;;4975467;28;20081;-72
2022/08/07 09:43:02;;;;;;;1.33;0.80;;;27.00;50.20;;;;;;4975535;28;20039;-73
2022/08/07 09:45:46;;;;;;;0.85;0.60;;;26.70;49.90;;;;;;4975341;28;20031;-72
2022/08/07 09:48:25;;;;;;;0.75;0.70;;;26.90;51.10;;;;;;4974032;28;20031;-72
2022/08/07 09:51:28;;;;;;;1.05;0.75;;;27.20;49.90;;;;;;4975669;28;20049;-72
2022/08/07 09:53:57;;;;;;;2.20;0.65;;;27.50;49.70;;;;;;4975465;28;20082;-72
2022/08/07 09:56:43;;;;;;;1.42;0.73;;;27.20;48.50;;;;;;4975078;28;20067;-72
2022/08/07 09:59:20;;;;;;;2.38;0.70;;;27.40;49.50;;;;;;4974973;28;20046;-72
2022/08/07 10:02:23;;;;;;;2.35;0.63;;;27.70;48.90;;;;;;4974386;28;20126;-72
2022/08/07 10:04:52;;;;;;;2.63;0.77;;;28.10;48.00;;;;;;4974919;28;20035;-72
2022/08/07 10:07:39;;;;;;;2.80;0.80;;;28.20;47.50;;;;;;4975258;28;20027;-72
2022/08/07 10:10:30;;;;;;;2.85;0.90;;;28.30;46.80;;;;;;4975166;28;20464;-72
2022/08/07 10:13:14;;;;;;;1.65;0.60;;;28.10;46.80;;;;;;4973801;28;20067;-73
2022/08/07 10:15:55;;;;;;;2.13;0.88;;;28.30;46.90;;;;;;4975137;28;20035;-72
2022/08/07 10:18:51;;;;;;;3.58;1.17;;;28.60;46.20;;;;;;4973695;28;20812;-72
2022/08/07 10:21:43;;;;;;;1.60;1.02;;;29.00;45.60;;;;;;4973487;28;20126;-72
2022/08/07 10:24:17;;;;;;;0.88;0.70;;;29.00;45.40;;;;;;4973205;28;20051;-72
2022/08/07 10:27:02;;;;;;;1.25;0.68;;;29.20;45.40;;;;;;4974935;28;20032;-72
2022/08/07 10:29:46;;;;;;;0.90;0.80;;;28.70;45.60;;;;;;4976660;28;20513;-72
2022/08/07 10:32:36;;;;;;;1.02;0.60;;;28.40;45.70;;;;;;4978297;28;20082;-72
2022/08/07 10:35:20;;;;;;;0.82;0.50;;;28.30;47.20;;;;;;4977945;28;20047;-73
2022/08/07 10:37:58;;;;;;;2.33;0.70;;;28.40;45.50;;;;;;4978235;28;20158;-72
2022/08/07 10:40:39;;;;;;;1.58;0.60;;;28.60;44.80;;;;;;4977916;28;20039;-72
2022/08/07 10:43:28;;;;;;;1.05;0.60;;;28.70;45.70;;;;;;4977937;28;20027;-72
2022/08/07 10:46:25;;;;;;;0.73;0.50;;;28.90;45.00;;;;;;4977650;28;20417;-72
2022/08/07 10:49:13;;;;;;;2.15;0.70;;;28.80;43.50;;;;;;4977098;28;20457;-72
2022/08/07 10:51:50;;;;;;;0.90;0.60;;;29.20;44.00;;;;;;4977481;28;20054;-72
2022/08/07 10:54:34;;;;;;;1.25;0.75;;;29.60;43.50;;;;;;4977412;28;20660;-73
2022/08/07 10:57:30;;;;;;;1.33;0.70;;;29.90;44.20;;;;;;4977987;28;20514;-72
2022/08/07 11:00:09;;;;;;;3.03;1.00;;;30.10;43.60;;;;;;4977636;28;20110;-72
2022/08/07 11:03:09;;;;;;;2.13;0.90;;;30.00;43.60;;;;;;4977043;28;20063;-72
2022/08/07 11:05:51;;;;;;;1.13;0.60;;;30.20;42.60;;;;;;4977301;28;20042;-72
2022/08/07 11:08:35;;;;;;;2.20;0.65;;;30.40;42.80;;;;;;4977797;28;20122;-72
2022/08/07 11:11:13;;;;;;;1.67;0.70;;;30.60;43.10;;;;;;4978001;28;20023;-72
2022/08/07 11:13:45;;;;;;;1.65;0.60;;;30.70;42.50;;;;;;4977384;28;20516;-72
2022/08/07 11:16:26;;;;;;;0.60;0.60;;;30.60;41.70;;;;;;4977540;28;20043;-73
2022/08/07 11:19:08;;;;;;;2.53;0.60;;;30.50;41.90;;;;;;4976014;28;20059;-72
2022/08/07 11:22:09;;;;;;;2.17;1.33;;;29.90;41.60;;;;;;4977234;28;20035;-72
2022/08/07 11:25:04;;;;;;;0.98;0.70;;;29.90;42.50;;;;;;4977147;28;20039;-73
2022/08/07 11:27:56;;;;;;;1.17;0.65;;;30.40;42.20;;;;;;4977701;28;20035;-73
2022/08/07 11:30:25;;;;;;;0.98;0.57;;;30.20;41.20;;;;;;4976981;28;20118;-72
2022/08/07 11:33:05;;;;;;;0.75;0.70;;;30.40;41.50;;;;;;4977137;28;20099;-73
2022/08/07 11:35:41;;;;;;;2.55;0.70;;;30.70;41.10;;;;;;4977067;28;20043;-73
2022/08/07 11:38:42;;;;;;;2.35;0.57;;;30.80;41.00;;;;;;4977338;28;20106;-73
2022/08/07 11:41:17;;;;;;;1.05;0.60;;;31.00;40.60;;;;;;4976203;28;20043;-72
2022/08/07 11:44:00;;;;;;;1.40;0.70;;;30.90;40.90;;;;;;4977126;28;20078;-73
2022/08/07 11:46:34;;;;;;;1.70;0.85;;;31.20;40.60;;;;;;4977292;28;20043;-73
2022/08/07 11:49:15;;;;;;;3.35;1.38;;;31.20;40.80;;;;;;4977368;28;20051;-73
2022/08/07 11:51:55;;;;;;;4.13;1.30;;;31.20;40.10;;;;;;4976571;28;20039;-73
2022/08/07 11:54:40;;;;;;;12.68;7.55;;;31.30;40.10;;;;;;4976575;28;20042;-73
2022/08/07 11:57:41;;;;;;;0.85;0.80;;;31.10;40.10;;;;;;4977440;28;20540;-73
2022/08/07 12:00:09;;;;;;;0.45;0.45;;;31.00;40.10;;;;;;4970310;28;20074;-72
2022/08/07 12:03:10;;;;;;;2.75;1.55;;;31.20;41.10;;;;;;4974795;28;20071;-73
2022/08/07 12:06:12;;;;;;;1.10;0.80;;;31.70;40.10;;;;;;4976480;28;20031;-73
2022/08/07 12:08:52;;;;;;;1.73;0.80;;;31.90;39.10;;;;;;4976837;28;20038;-73
2022/08/07 12:11:20;;;;;;;2.40;0.70;;;32.20;37.70;;;;;;4976723;28;20031;-72
2022/08/07 12:13:55;;;;;;;5.63;4.68;;;32.30;37.70;;;;;;4976249;28;20050;-72
2022/08/07 12:16:26;;;;;;;1.75;1.00;;;32.20;38.40;;;;;;4976656;28;20035;-72
2022/08/07 12:19:12;;;;;;;3.03;1.05;;;32.20;38.60;;;;;;4975036;28;20039;-72
2022/08/07 12:22:15;;;;;;;3.50;0.80;;;31.90;39.80;;;;;;4976540;28;20027;-73
2022/08/07 12:28:01;;;;;;;3.15;1.25;;;32.30;38.70;;;;;;4975414;28;20114;-72
2022/08/07 12:30:33;;;;;;;2.53;2.15;;;32.40;37.60;;;;;;4974718;28;20039;-73
2022/08/07 12:33:17;;;;;;;1.83;1.45;;;31.90;38.50;;;;;;4976579;28;20031;-73
2022/08/07 12:35:45;;;;;;;1.33;0.77;;;32.40;38.50;;;;;;4976120;28;20476;-72
2022/08/07 12:38:12;;;;;;;1.80;0.85;;;32.20;36.80;;;;;;4976231;28;20501;-73
2022/08/07 12:40:41;;;;;;;1.75;0.90;;;32.20;36.00;;;;;;4975886;28;20136;-73
2022/08/07 12:43:09;;;;;;;2.28;2.08;;;32.40;35.90;;;;;;4974569;28;20042;-73
2022/08/07 12:46:08;;;;;;;4.13;3.55;;;32.70;36.90;;;;;;4975756;28;20080;-73
2022/08/07 12:48:55;;;;;;;2.58;0.93;;;32.40;35.90;;;;;;4976037;28;20179;-73
2022/08/07 12:51:26;;;;;;;2.75;0.57;;;32.60;38.00;;;;;;4975536;28;20035;-73
2022/08/07 12:54:05;;;;;;;2.00;0.70;;;32.80;36.70;;;;;;4975000;28;20604;-73
2022/08/07 12:56:35;;;;;;;0.55;0.55;;;32.50;36.60;;;;;;4976174;28;20035;-72
2022/08/07 12:59:04;;;;;;;1.15;0.60;;;32.80;36.80;;;;;;4974405;28;20391;-73
2022/08/07 13:01:49;;;;;;;1.98;0.60;;;32.90;36.60;;;;;;4975420;28;20039;-73
2022/08/07 13:04:27;;;;;;;0.63;0.60;;;32.70;36.40;;;;;;4975698;28;20494;-73
2022/08/07 13:07:20;;;;;;;4.18;0.98;;;32.80;36.60;;;;;;4975824;28;20069;-72
2022/08/07 13:09:56;;;;;;;2.72;1.00;;;32.80;36.50;;;;;;4975784;28;20584;-73
2022/08/07 13:12:40;;;;;;;0.75;0.60;;;32.80;36.90;;;;;;4975517;28;20086;-73
2022/08/07 13:15:16;;;;;;;3.08;0.80;;;33.00;37.50;;;;;;4974228;28;20097;-73
2022/08/07 13:17:50;;;;;;;1.58;0.70;;;33.10;36.80;;;;;;4975928;28;20115;-73
2022/08/07 13:20:42;;;;;;;1.20;0.57;;;32.60;36.20;;;;;;4975849;28;20210;-73
2022/08/07 13:23:19;;;;;;;1.13;0.80;;;32.70;37.30;;;;;;4975465;28;20563;-73
2022/08/07 13:26:07;;;;;;;0.60;0.60;;;32.70;37.50;;;;;;4975502;28;20051;-73
2022/08/07 13:28:40;;;;;;;0.93;0.63;;;32.70;37.00;;;;;;4973388;28;20532;-73
2022/08/07 13:31:21;;;;;;;1.83;0.60;;;33.10;37.00;;;;;;4975287;28;20069;-73
2022/08/07 13:33:56;;;;;;;2.28;1.77;;;32.80;36.00;;;;;;4975150;28;20039;-73
2022/08/07 13:36:29;;;;;;;2.25;0.80;;;33.50;36.60;;;;;;4975397;28;20027;-73
2022/08/07 13:39:26;;;;;;;0.68;0.68;;;34.20;36.50;;;;;;4975254;28;20039;-73
2022/08/07 13:41:53;;;;;;;2.20;1.40;;;34.50;34.70;;;;;;4975325;28;20031;-73
2022/08/07 13:44:26;;;;;;;1.33;0.80;;;35.00;34.80;;;;;;4974930;28;20062;-73
2022/08/07 13:46:55;;;;;;;5.20;0.73;;;35.50;32.80;;;;;;4975259;28;20031;-73
2022/08/07 13:49:22;;;;;;;2.22;1.63;;;36.00;32.40;;;;;;4975017;28;20066;-73
2022/08/07 13:51:49;;;;;;;1.63;1.00;;;36.00;32.70;;;;;;4974414;28;20062;-73
2022/08/07 13:54:16;;;;;;;0.73;0.60;;;36.60;33.00;;;;;;4974598;28;20480;-73
2022/08/07 13:56:44;;;;;;;1.02;0.77;;;36.70;32.10;;;;;;4975388;28;20031;-73
2022/08/07 13:59:19;;;;;;;1.73;0.70;;;37.00;32.00;;;;;;4975003;28;20070;-73
2022/08/07 14:01:52;;;;;;;4.68;1.60;;;36.10;31.50;;;;;;4974920;28;20130;-73
2022/08/07 14:04:19;;;;;;;1.92;1.30;;;36.20;32.40;;;;;;4974305;28;20125;-73
2022/08/07 14:06:47;;;;;;;4.70;1.15;;;36.60;32.30;;;;;;4973554;28;20102;-74
2022/08/07 14:09:20;;;;;;;2.25;1.25;;;37.60;32.00;;;;;;4975274;28;20516;-74
2022/08/07 14:11:52;;;;;;;2.55;1.00;;;38.60;30.90;;;;;;4974913;28;20043;-73
2022/08/07 14:14:21;;;;;;;1.15;0.90;;;39.10;30.10;;;;;;4974927;28;20066;-74
2022/08/07 14:16:47;;;;;;;3.83;0.90;;;39.40;30.00;;;;;;4974730;28;20034;-74
2022/08/07 14:19:21;;;;;;;1.20;1.00;;;39.90;29.90;;;;;;4975101;28;20039;-73
2022/08/07 14:21:50;;;;;;;0.95;0.73;;;38.70;29.60;;;;;;4975026;28;20035;-74
2022/08/07 14:24:30;;;;;;;1.08;0.90;;;39.10;29.90;;;;;;4974612;28;20039;-73
2022/08/07 14:27:05;;;;;;;0.95;0.80;;;38.90;29.80;;;;;;4974949;28;20055;-73
2022/08/07 14:29:34;;;;;;;1.85;1.08;;;39.60;29.30;;;;;;4975014;28;20078;-74
2022/08/07 14:32:04;;;;;;;2.58;1.30;;;39.40;29.60;;;;;;4975345;28;20063;-74
2022/08/07 14:34:33;;;;;;;1.60;0.75;;;39.50;29.40;;;;;;4974863;28;20103;-74
2022/08/07 14:37:01;;;;;;;1.67;0.90;;;38.10;29.50;;;;;;4974893;28;20868;-74
2022/08/07 14:39:28;;;;;;;0.90;0.90;;;39.10;29.30;;;;;;4974816;28;20521;-74
2022/08/07 14:41:54;;;;;;;3.72;0.90;;;40.80;28.50;;;;;;4974401;28;20122;-72
2022/08/07 14:44:21;;;;;;;2.17;1.00;;;41.30;28.30;;;;;;4974606;28;20078;-71
2022/08/07 14:46:48;;;;;;;1.20;1.00;;;41.60;27.70;;;;;;4974663;28;20442;-71
2022/08/07 14:49:16;;;;;;;1.27;0.90;;;41.10;27.80;;;;;;4974677;28;20043;-71
2022/08/07 14:51:43;;;;;;;1.23;0.90;;;40.40;28.40;;;;;;4974349;28;20035;-72
2022/08/07 14:54:09;;;;;;;1.30;0.90;;;40.70;28.40;;;;;;4974262;28;20063;-71
2022/08/07 14:56:39;;;;;;;1.63;0.90;;;40.80;28.60;;;;;;4974654;28;20483;-72
2022/08/07 14:59:08;;;;;;;1.73;0.90;;;41.10;28.50;;;;;;4974601;28;20043;-72
2022/08/07 15:01:37;;;;;;;1.33;1.10;;;40.70;28.40;;;;;;4973864;28;20031;-72
2022/08/07 15:04:05;;;;;;;0.90;0.90;;;41.40;28.30;;;;;;4973091;28;20039;-71
2022/08/07 15:06:35;;;;;;;1.85;1.40;;;41.80;28.30;;;;;;4975240;28;20067;-72
2022/08/07 15:09:07;;;;;;;2.35;1.10;;;42.40;27.60;;;;;;4975506;28;20135;-72
2022/08/07 15:11:38;;;;;;;2.25;1.25;;;43.00;26.70;;;;;;4974696;28;20486;-72
2022/08/07 15:14:07;;;;;;;2.42;1.20;;;42.10;26.70;;;;;;4974491;28;20595;-72
2022/08/07 15:16:43;;;;;;;2.75;1.20;;;43.80;26.90;;;;;;4976415;28;20045;-72
2022/08/07 15:19:13;;;;;;;1.50;1.40;;;43.00;27.10;;;;;;4978031;28;20517;-72
2022/08/07 15:21:43;;;;;;;2.25;1.20;;;43.20;27.00;;;;;;4977319;28;20032;-72
2022/08/07 15:24:16;;;;;;;1.20;1.20;;;42.90;26.70;;;;;;4977217;28;20524;-72
2022/08/07 15:27:02;;;;;;;1.83;1.20;;;43.10;27.20;;;;;;4977628;28;20130;-72
2022/08/07 15:29:37;;;;;;;3.53;1.23;;;43.00;27.00;;;;;;4977537;28;20509;-72
2022/08/07 15:32:05;;;;;;;1.50;1.40;;;42.80;26.70;;;;;;4977054;28;20158;-72
2022/08/07 15:34:41;;;;;;;1.15;1.05;;;42.20;27.60;;;;;;4976889;28;20035;-72
2022/08/07 15:37:07;;;;;;;1.25;1.02;;;42.70;27.70;;;;;;4977458;28;20090;-72
2022/08/07 15:39:41;;;;;;;2.90;1.08;;;42.90;27.00;;;;;;4977561;28;20528;-72
2022/08/07 15:42:28;;;;;;;1.25;1.08;;;43.70;27.30;;;;;;4977203;28;20035;-73
2022/08/07 15:44:55;;;;;;;2.85;1.00;;;43.90;26.70;;;;;;4975354;28;20122;-73
2022/08/07 15:47:23;;;;;;;1.58;1.00;;;42.70;26.90;;;;;;4977404;28;20102;-72
2022/08/07 15:49:51;;;;;;;2.45;1.00;;;41.70;27.40;;;;;;4977389;28;20453;-72
2022/08/07 15:52:23;;;;;;;1.35;1.20;;;42.40;27.80;;;;;;4977018;28;20122;-72
2022/08/07 15:54:54;;;;;;;4.10;1.83;;;42.20;27.00;;;;;;4976782;28;20039;-72
2022/08/07 15:57:28;;;;;;;1.98;0.93;;;42.00;27.50;;;;;;4977514;28;20468;-73
2022/08/07 15:59:55;;;;;;;1.15;1.05;;;42.50;27.00;;;;;;4977438;28;20216;-73
2022/08/07 16:02:27;;;;;;;1.52;1.10;;;43.60;26.60;;;;;;4976521;28;20063;-72
2022/08/07 16:04:59;;;;;;;1.10;1.00;;;43.60;27.20;;;;;;4976795;28;20039;-73
2022/08/07 16:07:29;;;;;;;1.88;1.17;;;43.00;26.40;;;;;;4977349;28;20039;-73
2022/08/07 16:10:21;;;;;;;1.33;1.10;;;43.10;28.00;;;;;;4975472;28;20035;-72
2022/08/07 16:13:18;;;;;;;1.35;1.02;;;42.70;26.50;;;;;;4977539;28;20031;-71
2022/08/07 16:16:01;;;;;;;1.48;1.10;;;41.10;27.10;;;;;;4976452;28;20126;-74
2022/08/07 16:18:47;;;;;;;1.45;1.00;;;40.90;27.80;;;;;;4976860;28;20039;-72
2022/08/07 16:21:40;;;;;;;2.78;1.20;;;41.80;27.40;;;;;;4976896;28;20042;-72
2022/08/07 16:24:37;;;;;;;2.85;0.95;;;41.90;27.00;;;;;;4973066;28;20035;-72
2022/08/07 16:27:22;;;;;;;1.85;1.00;;;42.10;27.20;;;;;;4969265;28;20043;-75
2022/08/07 16:30:04;;;;;;;1.95;1.10;;;41.90;26.90;;;;;;4972348;28;20043;-72
2022/08/07 16:32:46;;;;;;;1.02;0.93;;;41.30;27.40;;;;;;4977030;28;20075;-77
2022/08/07 16:35:20;;;;;;;3.67;1.10;;;41.50;27.40;;;;;;4961605;28;20681;-76
2022/08/07 16:38:24;;;;;;;1.25;0.80;;;40.80;27.60;;;;;;4976401;28;20039;-73
2022/08/07 16:41:14;;;;;;;2.80;1.10;;;40.30;27.90;;;;;;4973592;28;20588;-77
2022/08/07 16:44:13;;;;;;;1.58;0.93;;;38.90;28.30;;;;;;4987208;28;20118;-73
2022/08/07 16:46:57;;;;;;;0.80;0.80;;;37.50;29.50;;;;;;4994681;28;20113;-73
2022/08/07 16:49:36;;;;;;;1.35;0.80;;;36.40;31.80;;;;;;4974726;28;20110;-74
2022/08/07 16:52:33;;;;;;;1.00;0.90;;;35.20;31.60;;;;;;4967183;28;20456;-73
2022/08/07 16:55:11;;;;;;;1.02;0.90;;;33.60;33.10;;;;;;4966526;28;20500;-73
2022/08/07 16:57:55;;;;;;;1.15;0.70;;;32.80;34.60;;;;;;4976594;28;20028;-74
2022/08/07 17:00:24;;;;;;;0.75;0.73;;;31.50;35.40;;;;;;4974600;28;20035;-75
2022/08/07 17:03:10;;;;;;;2.83;0.93;;;31.00;36.40;;;;;;4975544;28;20055;-74
2022/08/07 17:05:44;;;;;;;1.27;0.70;;;30.50;37.40;;;;;;4975134;28;20035;-75
2022/08/07 17:08:16;;;;;;;1.63;0.80;;;30.00;38.70;;;;;;4977221;28;20031;-75
2022/08/07 17:10:53;;;;;;;1.20;0.90;;;29.60;39.20;;;;;;4976249;28;20042;-75
2022/08/07 17:13:19;;;;;;;1.38;0.70;;;29.30;38.70;;;;;;4976298;28;20465;-74
2022/08/07 17:15:44;;;;;;;2.45;0.70;;;28.80;39.30;;;;;;4975871;28;20053;-74
2022/08/07 17:18:28;;;;;;;1.63;0.80;;;28.70;39.80;;;;;;4974608;28;20424;-75
2022/08/07 17:20:54;;;;;;;1.38;0.90;;;28.50;40.70;;;;;;4976125;28;20079;-76
2022/08/07 17:23:48;;;;;;;1.23;0.80;;;28.30;41.20;;;;;;4976409;28;20066;-76
2022/08/07 17:26:35;;;;;;;1.83;0.80;;;28.10;41.30;;;;;;4976194;28;20476;-75
2022/08/07 17:29:08;;;;;;;2.75;0.80;;;27.80;42.50;;;;;;4975944;28;20106;-77
2022/08/07 17:31:37;;;;;;;3.17;0.65;;;27.50;43.10;;;;;;4975892;28;20090;-74
2022/08/07 17:34:10;;;;;;;0.90;0.60;;;27.50;42.10;;;;;;4976413;28;20071;-73
2022/08/07 17:36:40;;;;;;;2.50;0.80;;;27.30;42.80;;;;;;4976247;28;20039;-73
2022/08/07 17:39:14;;;;;;;2.35;1.00;;;27.10;44.20;;;;;;4975176;28;20035;-76